Salina Municipal Airport
KSLN : now visible

Airfield :











YOU CAN JOIN US ON...

 
LOGIN :

Register | Disclaimer

   EN    FR    IT 

 









Legend :    VFR   Marginal VFR   IFR   Intensive IFR   Very Intensive IFR
Visi :
Ceiling :
>= 8 km
>= 3000ft
5 to 8 km
1000 to 3000 ft
1500m to 5 km
500 to 1000 ft
800 to 1500m
200 to 500 ft
< 800m
< 200 ft
Symbols :   Thunderstorms  Fog  Heavy snow  Heavy precipitations  Wind > 20 kt






- Airport Elevation : 1288 ft
- IATA code : SLN


KSLN - Salina Municipal

CURRENT METAR :
  • 251453Z 32005KT 10SM OVC110 M01/M03 A3046 RMK AO2 SLP325 T10061033 53020

EXPIRED METARs :
  • 251353Z 00000KT 10SM OVC120 M02/M04 A3041 RMK AO2 SLP308 T10221039
  • 251253Z 34004KT 10SM BKN110 M04/M06 A3039 RMK AO2 SLP304 T10391056

TAF KSLN
Valid from the 25 at 12:00 until the 26 at 12:00 UTC


251120Z 2512/2612 34005KT P6SM BKN120
FM252200 12004KT P6SM BKN120
FM260300 15005KT P6SM FEW150
KZKC FIR / North America



MET'MAP, your aeronautical weather chart ! - Copyright ORBIFLY December 2007 - Disclaimer

ORBIFLY MET'MAP TEAM :

Programming & Development : Alexandra Zaïnal
Concept & original design : Baudouin d'Aumeries
Assistance for programming : Marc-Olivier Méhu
Technical & hardware support : Manuel Goepfert

Contact : metmap@orbifly.com




SOURCES & CREDITS :

   NOAA       Earth
Advisory